createdAt,value
2019-02-26T00:01:58.887Z,11.80
2019-02-26T00:04:29.791Z,11.80
2019-02-26T00:07:00.401Z,11.70
2019-02-26T00:09:32.342Z,11.70
2019-02-26T00:12:01.563Z,11.60
2019-02-26T00:14:31.227Z,11.40
2019-02-26T00:17:00.900Z,11.50
2019-02-26T00:19:32.071Z,11.50
2019-02-26T00:22:03.828Z,11.50
2019-02-26T00:24:35.329Z,11.40
2019-02-26T00:27:08.095Z,11.40
2019-02-26T00:29:39.059Z,11.30
2019-02-26T00:32:10.086Z,11.30
2019-02-26T00:34:41.162Z,11.30
2019-02-26T00:37:12.925Z,11.20
2019-02-26T00:39:42.635Z,11.20
2019-02-26T00:42:12.306Z,11.10
2019-02-26T00:44:41.973Z,11.10
2019-02-26T00:47:11.898Z,11.00
2019-02-26T00:49:44.072Z,11.00
2019-02-26T00:52:15.578Z,11.00
2019-02-26T00:54:45.051Z,10.90
2019-02-26T00:57:16.744Z,10.90
2019-02-26T00:59:48.060Z,10.80
2019-02-26T01:02:18.036Z,10.80
2019-02-26T01:04:48.539Z,10.80
2019-02-26T01:07:21.207Z,10.70
2019-02-26T01:09:52.380Z,10.70
2019-02-26T01:12:21.917Z,10.70
2019-02-26T01:14:51.585Z,10.60
2019-02-26T01:17:21.259Z,10.60
2019-02-26T01:19:50.979Z,10.60
2019-02-26T01:22:20.635Z,10.60
2019-02-26T01:24:51.901Z,10.50
2019-02-26T01:27:21.713Z,10.50
2019-02-26T01:29:53.578Z,10.50
2019-02-26T01:32:24.834Z,10.40
2019-02-26T01:34:54.158Z,10.40
2019-02-26T01:37:25.370Z,10.30
2019-02-26T01:39:55.251Z,10.30
2019-02-26T01:42:27.020Z,10.30
2019-02-26T01:44:58.484Z,10.20
2019-02-26T01:47:28.577Z,10.20
2019-02-26T01:49:59.386Z,10.20
2019-02-26T01:52:29.946Z,10.20
2019-02-26T01:55:00.620Z,10.20
2019-02-26T01:57:31.798Z,10.20
2019-02-26T02:00:01.467Z,10.20
2019-02-26T02:02:31.139Z,10.10
2019-02-26T02:05:02.993Z,10.10
2019-02-26T02:07:32.202Z,10.10
2019-02-26T02:10:03.188Z,10.10
2019-02-26T02:12:34.441Z,10.10
2019-02-26T02:15:08.025Z,10.10
2019-02-26T02:17:40.109Z,10.00
2019-02-26T02:20:16.419Z,10.00
2019-02-26T02:22:45.525Z,10.00
2019-02-26T02:25:15.403Z,10.00
2019-02-26T02:27:47.592Z,10.00
2019-02-26T02:30:24.097Z,9.90
2019-02-26T02:32:54.270Z,9.90
2019-02-26T02:35:21.986Z,9.90
2019-02-26T02:37:53.635Z,9.90
2019-02-26T02:40:24.100Z,9.90
2019-02-26T02:42:55.420Z,9.80
2019-02-26T02:45:25.096Z,9.80
2019-02-26T02:47:57.712Z,9.80
2019-02-26T02:50:26.124Z,9.80
2019-02-26T02:52:56.932Z,9.80
2019-02-26T02:55:27.192Z,9.70
2019-02-26T02:57:59.980Z,9.70
2019-02-26T03:00:31.273Z,9.70
2019-02-26T03:03:02.011Z,9.70
2019-02-26T03:05:35.211Z,9.70
2019-02-26T03:08:04.526Z,9.60
2019-02-26T03:10:36.595Z,9.60
2019-02-26T03:13:05.891Z,9.60
2019-02-26T03:15:35.902Z,9.60
2019-02-26T03:18:07.169Z,9.50
2019-02-26T03:20:40.303Z,9.50
2019-02-26T03:23:11.964Z,9.50
2019-02-26T03:25:41.439Z,9.50
2019-02-26T03:28:11.458Z,9.40
2019-02-26T03:30:44.305Z,9.40
2019-02-26T03:33:13.396Z,9.40
2019-02-26T03:35:43.047Z,9.40
2019-02-26T03:38:12.740Z,9.40
2019-02-26T03:40:42.387Z,9.30
2019-02-26T03:43:13.226Z,9.30
2019-02-26T03:45:47.293Z,9.30
2019-02-26T03:48:19.260Z,9.30
2019-02-26T03:50:46.719Z,9.20
2019-02-26T03:53:16.398Z,9.20
2019-02-26T03:55:46.461Z,9.20
2019-02-26T03:58:16.437Z,9.20
2019-02-26T04:00:46.918Z,9.20
2019-02-26T04:03:17.389Z,9.20
2019-02-26T04:05:47.587Z,9.20
2019-02-26T04:08:21.910Z,9.10
2019-02-26T04:10:52.805Z,9.10
2019-02-26T04:13:21.897Z,9.10
2019-02-26T04:15:54.067Z,9.10
2019-02-26T04:18:23.074Z,9.00
2019-02-26T04:20:52.878Z,9.00
2019-02-26T04:23:22.559Z,8.90
2019-02-26T04:26:05.657Z,8.90
2019-02-26T04:29:18.684Z,8.90
2019-02-26T04:32:17.535Z,8.80
2019-02-26T04:34:53.900Z,8.70
2019-02-26T04:37:41.156Z,8.70
2019-02-26T04:40:20.751Z,8.70
2019-02-26T04:43:21.741Z,8.60
2019-02-26T04:46:08.518Z,8.60
2019-02-26T04:48:43.315Z,8.60
2019-02-26T04:51:13.007Z,8.50
2019-02-26T04:53:42.868Z,8.60
2019-02-26T04:56:15.009Z,8.50
2019-02-26T04:58:45.895Z,8.50
2019-02-26T05:01:18.864Z,8.50
2019-02-26T05:03:47.419Z,8.50
2019-02-26T05:06:17.101Z,8.50
2019-02-26T05:08:46.832Z,8.50
2019-02-26T05:11:30.835Z,8.50
2019-02-26T05:13:48.224Z,8.50
2019-02-26T05:16:17.870Z,8.50
2019-02-26T05:18:49.590Z,8.50
2019-02-26T05:21:19.288Z,8.50
2019-02-26T05:23:49.531Z,8.50
2019-02-26T05:26:21.246Z,8.50
2019-02-26T05:28:52.412Z,8.50
2019-02-26T05:31:22.091Z,8.50
2019-02-26T05:33:54.249Z,8.50
2019-02-26T05:36:23.179Z,8.50
2019-02-26T05:38:54.629Z,8.50
2019-02-26T05:41:24.220Z,8.40
2019-02-26T05:43:57.825Z,8.40
2019-02-26T05:46:27.492Z,8.40
2019-02-26T05:48:57.057Z,8.40
2019-02-26T05:51:27.939Z,8.40
2019-02-26T05:54:01.235Z,8.40
2019-02-26T05:56:30.532Z,8.30
2019-02-26T05:59:04.355Z,8.30
2019-02-26T06:01:31.645Z,8.30
2019-02-26T06:04:04.096Z,8.30
2019-02-26T06:06:32.715Z,8.30
2019-02-26T06:09:05.027Z,8.20
2019-02-26T06:11:36.322Z,8.20
2019-02-26T06:14:09.466Z,8.30
2019-02-26T06:16:37.137Z,8.20
2019-02-26T06:19:11.011Z,8.20
2019-02-26T06:21:43.990Z,8.20
2019-02-26T06:24:12.423Z,8.20
2019-02-26T06:26:43.128Z,8.20
2019-02-26T06:29:14.288Z,8.20
2019-02-26T06:31:47.006Z,8.20
2019-02-26T06:34:21.494Z,8.20
2019-02-26T06:36:51.583Z,8.20
2019-02-26T06:39:22.591Z,8.20
2019-02-26T06:41:53.336Z,8.20
2019-02-26T06:44:23.015Z,8.20
2019-02-26T06:46:52.485Z,8.20
2019-02-26T06:49:24.599Z,8.10
2019-02-26T06:51:54.371Z,8.10
2019-02-26T06:54:25.067Z,8.10
2019-02-26T06:56:55.666Z,8.10
2019-02-26T06:59:34.869Z,8.10
2019-02-26T07:02:04.808Z,8.10
2019-02-26T07:04:34.478Z,8.10
2019-02-26T07:07:07.650Z,8.10
2019-02-26T07:09:38.690Z,8.10
2019-02-26T07:12:08.946Z,8.10
2019-02-26T07:14:38.648Z,8.10
2019-02-26T07:17:10.355Z,8.10
2019-02-26T07:19:40.415Z,8.20
2019-02-26T07:22:11.618Z,8.20
2019-02-26T07:24:44.572Z,8.20
2019-02-26T07:27:14.749Z,8.30
2019-02-26T07:29:45.765Z,8.30
2019-02-26T07:32:17.904Z,8.30
2019-02-26T07:34:49.680Z,8.30
2019-02-26T07:37:18.685Z,8.30
2019-02-26T07:39:51.588Z,8.40
2019-02-26T07:42:23.878Z,8.40
2019-02-26T07:44:53.908Z,8.50
2019-02-26T07:47:26.621Z,8.50
2019-02-26T07:50:00.791Z,8.50
2019-02-26T07:52:30.669Z,8.60
2019-02-26T07:54:59.857Z,8.60
2019-02-26T07:57:29.656Z,8.70
2019-02-26T07:59:59.382Z,8.80
2019-02-26T08:02:30.637Z,8.80
2019-02-26T08:05:00.912Z,8.90
2019-02-26T08:07:30.817Z,9.00
2019-02-26T08:10:00.553Z,9.20
2019-02-26T08:12:35.634Z,9.30
2019-02-26T08:15:08.565Z,9.40
2019-02-26T08:17:37.170Z,9.50
2019-02-26T08:20:12.866Z,9.60
2019-02-26T08:22:43.815Z,9.70
2019-02-26T08:25:14.949Z,9.80
2019-02-26T08:27:44.660Z,9.90
2019-02-26T08:30:18.513Z,10.00
2019-02-26T08:32:51.175Z,10.00
2019-02-26T08:35:19.207Z,10.10
2019-02-26T08:37:48.863Z,10.20
2019-02-26T08:40:18.351Z,10.30
2019-02-26T08:42:49.327Z,10.50
2019-02-26T08:45:25.095Z,10.50
2019-02-26T08:47:53.696Z,10.60
2019-02-26T08:50:23.392Z,10.70
2019-02-26T08:52:55.563Z,10.80
2019-02-26T08:55:24.719Z,10.90
2019-02-26T08:57:56.767Z,11.00
2019-02-26T09:00:26.503Z,11.10
2019-02-26T09:02:56.791Z,11.20
2019-02-26T09:05:29.209Z,11.30
2019-02-26T09:07:58.084Z,11.40
2019-02-26T09:10:27.791Z,11.50
2019-02-26T09:12:57.527Z,11.70
2019-02-26T09:15:29.004Z,11.80
2019-02-26T09:18:02.820Z,12.00
2019-02-26T09:20:33.820Z,12.10
2019-02-26T09:23:03.506Z,12.20
2019-02-26T09:25:34.443Z,12.30
2019-02-26T09:28:07.328Z,12.40
2019-02-26T09:30:40.811Z,12.50
2019-02-26T09:33:11.199Z,12.60
2019-02-26T09:35:41.138Z,12.70
2019-02-26T09:38:12.316Z,12.80
2019-02-26T09:40:42.343Z,13.00
2019-02-26T09:43:12.938Z,13.10
2019-02-26T09:45:45.721Z,13.20
2019-02-26T09:48:16.953Z,13.20
2019-02-26T09:50:48.608Z,13.50
2019-02-26T09:53:18.187Z,13.60
2019-02-26T09:55:49.089Z,13.70
2019-02-26T09:58:21.197Z,13.90
2019-02-26T10:00:58.414Z,14.00
2019-02-26T10:03:29.717Z,14.10
2019-02-26T10:06:00.923Z,14.20
2019-02-26T10:08:30.951Z,14.30
2019-02-26T10:11:02.772Z,14.40
2019-02-26T10:13:33.182Z,14.50
2019-02-26T10:16:04.486Z,14.60
2019-02-26T10:18:34.373Z,14.70
2019-02-26T10:21:05.997Z,15.00
2019-02-26T10:23:35.437Z,15.10
2019-02-26T10:26:05.848Z,15.20
2019-02-26T10:28:39.465Z,15.40
2019-02-26T10:31:09.701Z,15.40
2019-02-26T10:33:41.136Z,15.50
2019-02-26T10:36:12.965Z,15.60
2019-02-26T10:38:42.339Z,15.70
2019-02-26T10:41:12.015Z,15.80
2019-02-26T10:43:41.778Z,15.90
2019-02-26T10:46:11.469Z,16.10
2019-02-26T10:48:43.345Z,16.10
2019-02-26T10:51:16.718Z,16.20
2019-02-26T10:53:45.316Z,16.30
2019-02-26T10:56:14.987Z,16.30
2019-02-26T10:58:46.245Z,16.40
2019-02-26T11:01:17.789Z,16.50
2019-02-26T11:03:49.335Z,16.50
2019-02-26T11:06:20.111Z,16.60
2019-02-26T11:08:51.174Z,16.70
2019-02-26T11:11:21.202Z,16.70
2019-02-26T11:13:53.642Z,16.80
2019-02-26T11:16:25.371Z,16.90
2019-02-26T11:18:54.929Z,16.90
2019-02-26T11:21:25.604Z,17.00
2019-02-26T11:23:55.594Z,17.10
2019-02-26T11:26:25.292Z,17.20
2019-02-26T11:28:55.074Z,17.30
2019-02-26T11:31:25.552Z,17.40
2019-02-26T11:33:57.294Z,17.40
2019-02-26T11:36:28.180Z,17.50
2019-02-26T11:39:02.279Z,17.60
2019-02-26T11:41:35.427Z,17.70
2019-02-26T11:44:07.120Z,17.70
2019-02-26T11:46:36.478Z,17.80
2019-02-26T11:49:06.183Z,17.90
2019-02-26T11:51:37.328Z,18.00
2019-02-26T11:54:08.225Z,18.20
2019-02-26T11:56:43.517Z,18.30
2019-02-26T11:59:14.286Z,18.40
2019-02-26T12:01:43.365Z,18.40
2019-02-26T12:04:14.206Z,18.50
2019-02-26T12:06:44.485Z,18.60
2019-02-26T12:09:16.158Z,18.60
2019-02-26T12:11:46.157Z,18.70
2019-02-26T12:14:16.929Z,18.70
2019-02-26T12:16:47.249Z,18.80
2019-02-26T12:19:19.374Z,18.80
2019-02-26T12:21:49.521Z,18.90
2019-02-26T12:24:20.513Z,19.00
2019-02-26T12:26:52.331Z,19.00
2019-02-26T12:29:23.567Z,19.10
2019-02-26T12:31:58.184Z,19.20
2019-02-26T12:34:30.852Z,19.20
2019-02-26T12:37:02.791Z,19.30
2019-02-26T12:39:31.914Z,19.40
2019-02-26T12:42:02.440Z,19.50
2019-02-26T12:44:34.777Z,19.60
2019-02-26T12:47:04.119Z,19.60
2019-02-26T12:49:36.534Z,19.70
2019-02-26T12:52:06.686Z,19.70
2019-02-26T12:54:37.821Z,19.80
2019-02-26T12:57:07.784Z,19.90
2019-02-26T12:59:37.454Z,20.00
2019-02-26T13:02:10.041Z,20.00
2019-02-26T13:04:40.855Z,20.10
2019-02-26T13:07:09.979Z,20.20
2019-02-26T13:09:50.412Z,20.20
2019-02-26T13:12:19.829Z,20.30
2019-02-26T13:14:47.581Z,20.30
2019-02-26T13:17:21.007Z,20.30
2019-02-26T13:19:58.144Z,20.30
2019-02-26T13:22:23.409Z,20.30
2019-02-26T13:24:53.168Z,20.40
2019-02-26T13:27:22.852Z,20.40
2019-02-26T13:30:13.279Z,20.40
2019-02-26T13:33:05.100Z,20.50
2019-02-26T13:35:17.225Z,20.50
2019-02-26T13:37:51.503Z,20.50
2019-02-26T13:40:23.967Z,20.60
2019-02-26T13:45:27.581Z,20.60
2019-02-26T13:48:01.171Z,20.70
2019-02-26T13:50:34.711Z,20.70
2019-02-26T13:53:04.689Z,20.70
2019-02-26T13:55:36.020Z,20.70
2019-02-26T13:58:11.694Z,20.80
2019-02-26T14:00:41.203Z,20.80
2019-02-26T14:03:12.251Z,20.80
2019-02-26T14:05:41.926Z,20.90
2019-02-26T14:08:11.783Z,20.90
2019-02-26T14:10:41.575Z,20.90
2019-02-26T14:13:11.595Z,21.00
2019-02-26T14:15:45.614Z,21.00
2019-02-26T14:18:17.338Z,21.10
2019-02-26T14:20:49.771Z,21.10
2019-02-26T14:23:20.230Z,21.10
2019-02-26T14:25:49.911Z,21.10
2019-02-26T14:28:19.571Z,21.20
2019-02-26T14:30:49.270Z,21.20
2019-02-26T14:33:18.969Z,21.20
2019-02-26T14:35:48.635Z,21.30
2019-02-26T14:38:18.313Z,21.30
2019-02-26T14:40:48.025Z,21.30
2019-02-26T14:43:19.160Z,21.30
2019-02-26T14:45:48.832Z,21.40
2019-02-26T14:48:18.603Z,21.40
2019-02-26T14:50:48.279Z,21.40
2019-02-26T14:53:17.938Z,21.50
2019-02-26T14:55:48.218Z,21.50
2019-02-26T14:58:18.171Z,21.50
2019-02-26T15:00:57.171Z,21.50
2019-02-26T15:03:19.925Z,21.50
2019-02-26T15:05:50.917Z,21.60
2019-02-26T15:08:20.607Z,21.60
2019-02-26T15:10:51.928Z,21.60
2019-02-26T15:13:25.521Z,21.70
2019-02-26T15:15:55.579Z,22.30
2019-02-26T15:18:25.258Z,23.90
2019-02-26T15:20:54.958Z,25.50
2019-02-26T15:23:24.638Z,27.00
2019-02-26T15:25:54.363Z,28.30
2019-02-26T15:28:25.664Z,29.40
2019-02-26T15:30:55.634Z,30.40
2019-02-26T15:33:25.333Z,31.20
2019-02-26T15:35:56.887Z,31.90
2019-02-26T15:38:29.620Z,32.60
2019-02-26T15:41:00.537Z,33.20
2019-02-26T15:43:30.329Z,33.70
2019-02-26T15:46:01.181Z,34.20
2019-02-26T15:48:30.914Z,34.60
2019-02-26T15:51:02.488Z,35.00
2019-02-26T15:53:32.179Z,35.40
2019-02-26T15:56:02.851Z,35.80
2019-02-26T15:58:34.194Z,36.10
2019-02-26T16:01:07.610Z,36.40
2019-02-26T16:03:37.568Z,36.70
2019-02-26T16:06:07.352Z,36.90
2019-02-26T16:08:38.533Z,37.10
2019-02-26T16:11:13.190Z,37.10
2019-02-26T16:13:45.015Z,36.00
2019-02-26T16:16:14.678Z,35.80
2019-02-26T16:18:44.542Z,36.00
2019-02-26T16:21:18.606Z,36.10
2019-02-26T16:23:47.241Z,36.30
2019-02-26T16:26:16.978Z,36.40
2019-02-26T16:28:47.535Z,36.50
2019-02-26T16:31:17.194Z,36.50
2019-02-26T16:33:47.298Z,36.40
2019-02-26T16:36:17.814Z,36.30
2019-02-26T16:38:50.547Z,36.10
2019-02-26T16:41:18.878Z,36.00
2019-02-26T16:43:51.667Z,35.90
2019-02-26T16:46:20.020Z,35.70
2019-02-26T16:48:53.165Z,35.50
2019-02-26T16:51:21.778Z,35.30
2019-02-26T16:53:51.723Z,35.10
2019-02-26T16:56:22.472Z,34.80
2019-02-26T16:58:52.314Z,34.50
2019-02-26T17:01:22.554Z,34.30
2019-02-26T17:03:53.999Z,33.90
2019-02-26T17:06:24.088Z,33.50
2019-02-26T17:08:53.773Z,33.20
2019-02-26T17:11:23.531Z,32.70
2019-02-26T17:13:53.241Z,32.10
2019-02-26T17:16:22.916Z,31.10
2019-02-26T17:18:54.222Z,30.10
2019-02-26T17:21:25.327Z,29.00
2019-02-26T17:23:55.078Z,28.10
2019-02-26T17:26:24.824Z,27.30
2019-02-26T17:28:54.547Z,26.50
2019-02-26T17:31:24.225Z,25.90
2019-02-26T17:33:53.937Z,25.30
2019-02-26T17:36:23.606Z,24.70
2019-02-26T17:38:53.282Z,24.20
2019-02-26T17:41:22.980Z,23.80
2019-02-26T17:43:56.818Z,23.40
2019-02-26T17:46:28.093Z,23.00
2019-02-26T17:48:57.775Z,22.60
2019-02-26T17:51:27.451Z,22.20
2019-02-26T17:53:57.121Z,21.90
2019-02-26T17:56:27.182Z,21.60
2019-02-26T17:58:56.911Z,21.30
2019-02-26T18:01:26.670Z,21.00
2019-02-26T18:03:56.500Z,20.80
2019-02-26T18:06:26.257Z,20.50
2019-02-26T18:08:56.490Z,20.30
2019-02-26T18:11:26.785Z,20.10
2019-02-26T18:13:57.801Z,19.90
2019-02-26T18:16:27.854Z,19.70
2019-02-26T18:18:59.509Z,19.50
2019-02-26T18:21:28.955Z,19.30
2019-02-26T18:23:58.975Z,19.10
2019-02-26T18:26:28.808Z,18.90
2019-02-26T18:28:58.482Z,18.80
2019-02-26T18:31:31.003Z,18.60
2019-02-26T18:34:00.265Z,18.50
2019-02-26T18:36:29.934Z,18.40
2019-02-26T18:38:59.631Z,18.20
2019-02-26T18:41:30.545Z,18.10
2019-02-26T18:44:02.905Z,18.00
2019-02-26T18:46:33.740Z,17.80
2019-02-26T18:49:05.379Z,17.70
2019-02-26T18:51:36.398Z,17.60
2019-02-26T18:54:06.546Z,17.50
2019-02-26T18:56:38.675Z,17.30
2019-02-26T18:59:07.641Z,17.20
2019-02-26T19:01:37.344Z,17.10
2019-02-26T19:04:07.117Z,17.00
2019-02-26T19:06:36.799Z,17.00
2019-02-26T19:09:11.472Z,16.90
2019-02-26T19:11:40.975Z,16.80
2019-02-26T19:14:10.980Z,16.70
2019-02-26T19:16:40.662Z,16.60
2019-02-26T19:19:10.445Z,16.50
2019-02-26T19:21:40.122Z,16.40
2019-02-26T19:24:10.129Z,16.30
2019-02-26T19:26:41.612Z,16.30
2019-02-26T19:29:11.312Z,16.20
2019-02-26T19:31:42.752Z,16.10
2019-02-26T19:34:12.733Z,16.00
2019-02-26T19:36:45.823Z,15.90
2019-02-26T19:39:16.593Z,15.90
2019-02-26T19:41:46.362Z,15.80
2019-02-26T19:44:16.059Z,15.70
2019-02-26T19:46:49.416Z,15.70
2019-02-26T19:49:17.152Z,15.60
2019-02-26T19:51:46.824Z,15.50
2019-02-26T19:54:18.390Z,15.50
2019-02-26T19:56:48.093Z,15.40
2019-02-26T19:59:19.402Z,15.40
2019-02-26T20:01:51.808Z,15.30
2019-02-26T20:04:21.677Z,15.20
2019-02-26T20:06:53.186Z,15.20
2019-02-26T20:09:25.940Z,15.10
2019-02-26T20:11:56.247Z,15.10
2019-02-26T20:14:26.705Z,15.00
2019-02-26T20:16:58.040Z,15.00
2019-02-26T20:19:31.644Z,14.90
2019-02-26T20:22:00.785Z,14.90
2019-02-26T20:24:30.530Z,14.80
2019-02-26T20:27:00.226Z,14.80
2019-02-26T20:29:29.969Z,14.70
2019-02-26T20:31:59.668Z,14.60
2019-02-26T20:34:29.373Z,14.60
2019-02-26T20:36:59.058Z,14.50
2019-02-26T20:39:28.742Z,14.50
2019-02-26T20:42:02.372Z,14.40
2019-02-26T20:44:32.047Z,14.40
2019-02-26T20:47:05.273Z,14.30
2019-02-26T20:49:35.855Z,14.30
2019-02-26T20:52:05.831Z,14.20
2019-02-26T20:54:37.005Z,14.20
2019-02-26T20:57:08.995Z,14.20
2019-02-26T20:59:40.517Z,14.10
2019-02-26T21:02:11.520Z,14.10
2019-02-26T21:04:41.214Z,14.10
2019-02-26T21:07:11.367Z,14.00
2019-02-26T21:09:41.652Z,14.00
2019-02-26T21:12:11.416Z,13.90
2019-02-26T21:14:42.041Z,13.90
2019-02-26T21:17:11.722Z,13.80
2019-02-26T21:19:41.418Z,13.80
2019-02-26T21:22:11.089Z,13.80
2019-02-26T21:24:40.761Z,13.70
2019-02-26T21:27:10.445Z,13.70
2019-02-26T21:29:41.544Z,13.70
2019-02-26T21:32:11.570Z,13.60
2019-02-26T21:34:42.899Z,13.60
2019-02-26T21:37:12.718Z,13.60
2019-02-26T21:39:43.755Z,13.50
2019-02-26T21:42:16.313Z,13.50
2019-02-26T21:44:45.992Z,13.40
2019-02-26T21:47:15.863Z,13.40
2019-02-26T21:49:46.519Z,13.30
2019-02-26T21:52:17.047Z,13.30
2019-02-26T21:54:46.718Z,13.20
2019-02-26T21:57:16.423Z,13.20
2019-02-26T21:59:50.671Z,13.20
2019-02-26T22:02:21.840Z,13.20
2019-02-26T22:04:51.511Z,13.10
2019-02-26T22:07:23.003Z,13.10
2019-02-26T22:09:52.700Z,13.10
2019-02-26T22:12:24.110Z,13.00
2019-02-26T22:14:54.195Z,13.00
2019-02-26T22:17:25.310Z,12.90
2019-02-26T22:19:56.238Z,12.90
2019-02-26T22:22:26.690Z,12.90
2019-02-26T22:24:57.878Z,12.80
2019-02-26T22:27:27.830Z,12.80
2019-02-26T22:29:57.655Z,12.80
2019-02-26T22:32:27.343Z,12.70
2019-02-26T22:34:57.803Z,12.70
2019-02-26T22:37:27.457Z,12.60
2019-02-26T22:39:57.169Z,12.60
2019-02-26T22:42:26.844Z,12.60
2019-02-26T22:44:56.519Z,12.50
2019-02-26T22:47:26.213Z,12.50
2019-02-26T22:49:55.874Z,12.50
2019-02-26T22:52:25.546Z,12.50
2019-02-26T22:54:55.237Z,12.40
2019-02-26T22:57:24.890Z,12.40
2019-02-26T22:59:54.558Z,12.40
2019-02-26T23:02:26.120Z,12.30
2019-02-26T23:04:57.286Z,12.30
2019-02-26T23:07:27.032Z,12.20
2019-02-26T23:09:56.733Z,12.20
2019-02-26T23:12:28.025Z,11.90
2019-02-26T23:14:58.265Z,12.10
2019-02-26T23:17:29.356Z,12.10
2019-02-26T23:19:59.112Z,12.00
2019-02-26T23:22:30.435Z,12.00
2019-02-26T23:25:00.877Z,12.00
2019-02-26T23:27:31.777Z,11.90
2019-02-26T23:30:02.143Z,11.80
2019-02-26T23:32:31.854Z,11.80
2019-02-26T23:35:08.926Z,11.80
2019-02-26T23:37:38.734Z,11.70
2019-02-26T23:40:13.217Z,11.70
2019-02-26T23:42:43.421Z,11.60
2019-02-26T23:45:15.481Z,11.60
2019-02-26T23:47:45.247Z,11.50
2019-02-26T23:50:15.431Z,11.50
2019-02-26T23:52:45.143Z,11.40
2019-02-26T23:55:16.042Z,11.40
2019-02-26T23:57:45.736Z,11.40
